Weather at Félix-Houphouët-Boigny International Airport

Public forecast

Using degrees Celsius for public forecast. Weather courtesy of forecast.io.

Current aviation weather report (METAR) for Félix-Houphouët-Boigny International Airport

2024/06/18 12:30 (retrieved 28 minutes ago)

DIAP 181230Z 21009KT 180V240 9999 SCT015 SCT023 30/24 Q1013 NOSIG

Aviation forecast (TAF) for Félix-Houphouët-Boigny International Airport

2024/06/18 12:55 (retrieved 3 minutes ago)

TAF DIAP 181155Z 1812/1918 21008KT 9999 SCT012 BKN040 TEMPO 1814/1820 4000 RA BKN010 BKN030 PROB30 TEMPO 1912/1918 4000 RA BKN010 BKN030